Time;durP1;ratioP1;P1;durP2;ratioP2;P2;SDS_P1;SDS_P2;PMS_P1;PMS_P2;Temp;Humidity;BMP_temperature;BMP_pressure;BME280_temperature;BME280_humidity;BME280_pressure;Samples;Min_cycle;Max_cycle;Signal;HPM_P1;HPM_P2
2023/04/06 00:01:10;;;;;;;7.03;3.75;;;;;;;;;;5034040;28;20044;-73
2023/04/06 00:03:37;;;;;;;6.20;3.72;;;;;;;;;;5016861;28;20036;-73
2023/04/06 00:06:03;;;;;;;6.55;3.35;;;;;;;;;;5046037;28;20033;-73
2023/04/06 00:08:29;;;;;;;7.28;3.58;;;;;;;;;;5029392;28;20473;-75
2023/04/06 00:10:55;;;;;;;7.95;4.18;;;;;;;;;;5029121;28;20481;-74
2023/04/06 00:13:21;;;;;;;6.47;3.95;;;;;;;;;;5034862;28;20025;-74
2023/04/06 00:15:47;;;;;;;8.45;3.92;;;;;;;;;;5048893;28;20037;-72
2023/04/06 00:18:14;;;;;;;9.82;4.55;;;;;;;;;;5026175;28;20090;-72
2023/04/06 00:20:40;;;;;;;7.63;3.90;;;;;;;;;;5059820;28;20025;-72
2023/04/06 00:23:06;;;;;;;7.43;4.65;;;;;;;;;;5046435;28;20036;-73
2023/04/06 00:25:32;;;;;;;7.88;4.75;;;;;;;;;;5029405;28;20572;-72
2023/04/06 00:27:58;;;;;;;6.25;3.92;;;;;;;;;;5045855;28;20044;-75
2023/04/06 00:30:24;;;;;;;6.30;3.72;;;;;;;;;;5033198;28;20037;-71
2023/04/06 00:32:51;;;;;;;9.63;4.25;;;;;;;;;;5028540;28;20218;-73
2023/04/06 00:35:17;;;;;;;7.55;4.43;;;;;;;;;;5032584;28;20028;-72
2023/04/06 00:37:43;;;;;;;6.80;3.33;;;;;;;;;;5027835;28;20029;-72
2023/04/06 00:40:09;;;;;;;6.88;3.95;;;;;;;;;;5032507;28;20074;-72
2023/04/06 00:42:36;;;;;;;7.28;3.95;;;;;;;;;;5030802;28;20123;-72
2023/04/06 00:45:02;;;;;;;5.53;4.07;;;;;;;;;;5061565;28;20045;-76
2023/04/06 00:47:29;;;;;;;7.75;3.60;;;;;;;;;;5026046;28;20048;-72
2023/04/06 00:49:55;;;;;;;6.47;3.50;;;;;;;;;;5033327;28;20044;-74
2023/04/06 00:52:21;;;;;;;5.65;3.30;;;;;;;;;;5029060;28;20033;-72
2023/04/06 00:54:48;;;;;;;5.40;3.28;;;;;;;;;;5028243;28;20139;-71
2023/04/06 00:57:14;;;;;;;8.07;4.57;;;;;;;;;;5044007;28;20648;-76
2023/04/06 00:59:41;;;;;;;6.45;3.85;;;;;;;;;;5044621;28;20603;-72
2023/04/06 01:02:07;;;;;;;7.65;4.18;;;;;;;;;;5044355;28;20470;-72
2023/04/06 01:04:33;;;;;;;5.22;3.60;;;;;;;;;;5027815;28;20041;-73
2023/04/06 01:06:59;;;;;;;7.43;3.50;;;;;;;;;;5030525;28;20027;-74
2023/04/06 01:09:28;;;;;;;6.78;3.25;;;;;;;;;;5045193;28;20142;-77
2023/04/06 01:11:55;;;;;;;5.82;3.72;;;;;;;;;;5044687;28;20021;-74
2023/04/06 01:14:21;;;;;;;8.65;3.72;;;;;;;;;;5025352;28;20124;-72
2023/04/06 01:16:47;;;;;;;6.70;3.55;;;;;;;;;;5044318;28;20131;-76
2023/04/06 01:19:14;;;;;;;6.68;3.63;;;;;;;;;;5045085;28;20029;-74
2023/04/06 01:21:40;;;;;;;6.13;3.85;;;;;;;;;;5028810;28;20505;-74
2023/04/06 01:24:06;;;;;;;7.25;4.20;;;;;;;;;;5045446;28;20086;-72
2023/04/06 01:26:33;;;;;;;6.35;3.78;;;;;;;;;;5044097;28;20043;-72
2023/04/06 01:28:59;;;;;;;7.55;4.03;;;;;;;;;;5045961;28;20437;-72
2023/04/06 01:31:26;;;;;;;5.63;3.65;;;;;;;;;;5046256;28;20032;-72
2023/04/06 01:33:52;;;;;;;7.60;3.47;;;;;;;;;;5047573;28;20029;-72
2023/04/06 01:36:19;;;;;;;7.90;4.35;;;;;;;;;;5043942;28;20029;-72
2023/04/06 01:38:45;;;;;;;5.47;3.40;;;;;;;;;;5045102;28;20116;-72
2023/04/06 01:41:11;;;;;;;6.03;3.67;;;;;;;;;;5044325;28;20036;-75
2023/04/06 01:43:37;;;;;;;6.97;4.03;;;;;;;;;;5044513;28;20029;-72
2023/04/06 01:46:04;;;;;;;15.82;8.80;;;;;;;;;;5045509;28;20033;-76
2023/04/06 01:48:30;;;;;;;7.45;4.10;;;;;;;;;;5041175;28;20087;-78
2023/04/06 01:50:56;;;;;;;6.68;4.60;;;;;;;;;;5028249;28;20032;-73
2023/04/06 01:53:22;;;;;;;7.38;4.07;;;;;;;;;;5011452;28;20033;-72
2023/04/06 01:55:48;;;;;;;10.00;4.32;;;;;;;;;;5012207;28;20044;-73
2023/04/06 01:58:14;;;;;;;11.35;4.68;;;;;;;;;;5012799;28;20028;-72
2023/04/06 02:00:40;;;;;;;8.52;4.20;;;;;;;;;;5012606;28;20086;-73
2023/04/06 02:03:07;;;;;;;6.25;3.90;;;;;;;;;;5021482;28;20044;-72
2023/04/06 02:05:37;;;;;;;7.72;4.30;;;;;;;;;;5023295;28;20398;-73
2023/04/06 02:08:07;;;;;;;7.00;4.10;;;;;;;;;;5043908;28;20514;-74
2023/04/06 02:10:36;;;;;;;7.07;4.28;;;;;;;;;;5027771;28;20025;-73
2023/04/06 02:13:02;;;;;;;5.55;4.10;;;;;;;;;;5043549;28;20033;-76
2023/04/06 02:15:28;;;;;;;5.53;4.00;;;;;;;;;;5021250;28;20089;-73
2023/04/06 02:17:54;;;;;;;13.05;3.90;;;;;;;;;;5037182;28;20049;-76
2023/04/06 02:20:21;;;;;;;5.22;4.65;;;;;;;;;;5043590;28;20049;-72
2023/04/06 02:22:47;;;;;;;7.38;3.92;;;;;;;;;;5027872;28;20366;-72
2023/04/06 02:25:13;;;;;;;6.47;4.05;;;;;;;;;;5026477;28;20051;-72
2023/04/06 02:27:39;;;;;;;7.90;3.90;;;;;;;;;;5012659;28;20367;-73
2023/04/06 02:30:06;;;;;;;7.47;4.43;;;;;;;;;;5028320;28;20025;-73
2023/04/06 02:32:32;;;;;;;8.23;4.28;;;;;;;;;;5058186;28;20041;-71
2023/04/06 02:34:58;;;;;;;6.85;4.00;;;;;;;;;;5011608;28;20033;-72
2023/04/06 02:37:24;;;;;;;7.93;4.22;;;;;;;;;;5029275;28;20373;-74
2023/04/06 02:39:51;;;;;;;7.15;4.45;;;;;;;;;;5041090;28;20032;-72
2023/04/06 02:42:17;;;;;;;6.93;4.40;;;;;;;;;;5044015;28;20031;-75
2023/04/06 02:44:43;;;;;;;6.68;3.85;;;;;;;;;;5006378;28;20067;-73
2023/04/06 02:47:09;;;;;;;6.18;4.95;;;;;;;;;;5034042;28;20045;-72
2023/04/06 02:49:36;;;;;;;7.88;4.90;;;;;;;;;;5005751;28;20048;-72
2023/04/06 02:52:02;;;;;;;6.55;4.53;;;;;;;;;;5026181;28;20392;-72
2023/04/06 02:54:28;;;;;;;5.57;3.80;;;;;;;;;;5006367;28;20466;-76
2023/04/06 02:56:55;;;;;;;8.68;4.38;;;;;;;;;;5024221;28;20079;-71
2023/04/06 02:59:21;;;;;;;9.90;4.45;;;;;;;;;;5009292;28;20029;-72
2023/04/06 03:01:47;;;;;;;6.40;4.28;;;;;;;;;;5005749;28;20061;-71
2023/04/06 03:04:13;;;;;;;7.32;4.50;;;;;;;;;;5006717;28;20052;-72
2023/04/06 03:06:39;;;;;;;5.50;3.95;;;;;;;;;;5003458;28;20099;-72
2023/04/06 03:09:06;;;;;;;8.63;4.50;;;;;;;;;;5024924;28;20351;-73
2023/04/06 03:11:32;;;;;;;6.75;5.20;;;;;;;;;;5021956;28;20029;-71
2023/04/06 03:13:59;;;;;;;4.20;3.63;;;;;;;;;;5006555;28;20078;-72
2023/04/06 03:16:25;;;;;;;8.63;4.40;;;;;;;;;;5000972;28;20030;-74
2023/04/06 03:18:51;;;;;;;8.00;4.85;;;;;;;;;;5009098;28;20092;-76
2023/04/06 03:21:19;;;;;;;8.10;4.57;;;;;;;;;;5010546;28;20087;-73
2023/04/06 03:23:45;;;;;;;6.07;4.07;;;;;;;;;;4993097;28;20023;-72
2023/04/06 03:26:11;;;;;;;7.93;4.25;;;;;;;;;;5012668;28;20395;-75
2023/04/06 03:28:37;;;;;;;6.35;4.45;;;;;;;;;;5028310;28;20026;-71
2023/04/06 03:31:04;;;;;;;5.88;4.70;;;;;;;;;;5024280;28;20398;-71
2023/04/06 03:33:30;;;;;;;8.15;5.00;;;;;;;;;;5010619;28;20026;-72
2023/04/06 03:35:56;;;;;;;8.45;4.43;;;;;;;;;;5012692;28;20390;-71
2023/04/06 03:38:22;;;;;;;11.02;4.63;;;;;;;;;;4997275;28;20029;-71
2023/04/06 03:40:49;;;;;;;8.73;4.38;;;;;;;;;;4995431;28;20026;-71
2023/04/06 03:43:15;;;;;;;5.60;4.38;;;;;;;;;;4997232;28;20033;-74
2023/04/06 03:45:41;;;;;;;7.38;4.70;;;;;;;;;;4997259;28;20068;-74
2023/04/06 03:48:07;;;;;;;10.38;4.95;;;;;;;;;;4991107;28;20053;-73
2023/04/06 03:50:34;;;;;;;13.95;5.50;;;;;;;;;;5011581;28;20033;-71
2023/04/06 03:53:02;;;;;;;11.00;5.10;;;;;;;;;;5009342;28;20022;-72
2023/04/06 03:55:29;;;;;;;8.15;5.05;;;;;;;;;;4993575;28;20029;-76
2023/04/06 03:57:55;;;;;;;6.38;4.82;;;;;;;;;;5028529;28;20026;-73
2023/04/06 04:00:21;;;;;;;6.80;5.18;;;;;;;;;;5010516;28;20030;-72
2023/04/06 04:02:47;;;;;;;6.47;4.85;;;;;;;;;;5010512;28;20038;-76
2023/04/06 04:05:13;;;;;;;7.70;4.90;;;;;;;;;;4992360;28;20045;-77
2023/04/06 04:07:39;;;;;;;7.18;5.10;;;;;;;;;;5003722;28;20075;-73
2023/04/06 04:10:06;;;;;;;6.60;4.53;;;;;;;;;;4993822;28;20113;-74
2023/04/06 04:12:32;;;;;;;7.70;4.93;;;;;;;;;;5007471;28;20494;-74
2023/04/06 04:14:58;;;;;;;7.40;4.68;;;;;;;;;;5011153;28;20022;-73
2023/04/06 04:17:25;;;;;;;8.07;4.72;;;;;;;;;;4994840;28;20595;-73
2023/04/06 04:19:51;;;;;;;8.73;5.13;;;;;;;;;;5009054;28;20022;-75
2023/04/06 04:22:17;;;;;;;6.47;5.20;;;;;;;;;;5011071;28;20079;-75
2023/04/06 04:24:43;;;;;;;9.45;5.30;;;;;;;;;;5009961;28;20504;-73
2023/04/06 04:27:09;;;;;;;6.88;5.00;;;;;;;;;;5010259;28;20022;-73
2023/04/06 04:29:35;;;;;;;8.05;5.15;;;;;;;;;;4992358;28;20607;-74
2023/04/06 04:32:02;;;;;;;7.57;4.60;;;;;;;;;;4996441;28;20026;-74
2023/04/06 04:34:28;;;;;;;12.25;5.00;;;;;;;;;;5008278;28;20423;-74
2023/04/06 04:36:55;;;;;;;6.03;4.70;;;;;;;;;;4994383;28;20065;-76
2023/04/06 04:39:21;;;;;;;9.68;4.95;;;;;;;;;;5010862;28;20120;-72
2023/04/06 04:41:47;;;;;;;7.20;5.30;;;;;;;;;;5010971;28;20056;-72
2023/04/06 04:44:13;;;;;;;8.52;5.20;;;;;;;;;;4995590;28;20033;-72
2023/04/06 04:46:41;;;;;;;6.50;5.20;;;;;;;;;;5024669;28;20017;-72
2023/04/06 04:49:07;;;;;;;9.25;5.43;;;;;;;;;;5044844;28;20080;-72
2023/04/06 04:51:33;;;;;;;9.40;6.18;;;;;;;;;;5047941;28;20037;-71
2023/04/06 04:53:59;;;;;;;9.27;5.25;;;;;;;;;;5028518;28;21368;-72
2023/04/06 04:56:27;;;;;;;10.35;6.47;;;;;;;;;;5031937;28;20037;-71
2023/04/06 04:58:53;;;;;;;10.63;5.50;;;;;;;;;;5027189;28;20055;-72
2023/04/06 05:01:19;;;;;;;15.55;6.55;;;;;;;;;;5042439;28;20032;-72
2023/04/06 05:03:45;;;;;;;9.95;6.18;;;;;;;;;;5037425;28;20385;-73
2023/04/06 05:06:11;;;;;;;6.88;5.13;;;;;;;;;;5003607;28;20040;-74
2023/04/06 05:08:37;;;;;;;8.45;5.93;;;;;;;;;;5046054;28;20028;-73
2023/04/06 05:11:04;;;;;;;8.88;5.43;;;;;;;;;;5046751;28;20032;-72
2023/04/06 05:13:31;;;;;;;10.75;6.22;;;;;;;;;;5029866;28;20017;-72
2023/04/06 05:15:57;;;;;;;8.48;5.70;;;;;;;;;;5048892;28;20040;-72
2023/04/06 05:18:23;;;;;;;9.30;6.22;;;;;;;;;;5043344;28;20025;-75
2023/04/06 05:20:51;;;;;;;11.63;7.03;;;;;;;;;;5041906;28;20044;-71
2023/04/06 05:23:17;;;;;;;9.57;6.18;;;;;;;;;;5045663;28;20036;-74
2023/04/06 05:25:43;;;;;;;17.70;5.75;;;;;;;;;;5044472;28;20033;-72
2023/04/06 05:28:09;;;;;;;9.35;6.63;;;;;;;;;;5045819;28;20106;-74
2023/04/06 05:30:36;;;;;;;10.00;6.00;;;;;;;;;;5028335;28;20465;-75
2023/04/06 05:33:02;;;;;;;9.90;6.55;;;;;;;;;;5027135;28;20087;-72
2023/04/06 05:35:28;;;;;;;9.20;5.82;;;;;;;;;;5028603;28;20079;-72
2023/04/06 05:37:55;;;;;;;8.38;6.07;;;;;;;;;;5046996;28;20099;-72
2023/04/06 05:40:21;;;;;;;10.00;6.05;;;;;;;;;;5046250;28;20384;-72
2023/04/06 05:42:47;;;;;;;9.20;6.00;;;;;;;;;;5026337;28;20025;-72
2023/04/06 05:45:16;;;;;;;9.13;5.38;;;;;;;;;;5028570;28;20063;-72
2023/04/06 05:47:43;;;;;;;11.93;6.35;;;;;;;;;;5044866;28;20402;-73
2023/04/06 05:50:09;;;;;;;11.93;6.45;;;;;;;;;;5029858;28;20045;-72
2023/04/06 05:52:36;;;;;;;12.75;7.32;;;;;;;;;;5026998;28;20032;-76
2023/04/06 05:55:02;;;;;;;9.18;5.68;;;;;;;;;;5027746;28;20040;-72
2023/04/06 05:57:28;;;;;;;8.23;5.90;;;;;;;;;;5026815;28;20244;-72
2023/04/06 05:59:55;;;;;;;8.95;5.45;;;;;;;;;;5010110;28;20087;-72
2023/04/06 06:02:21;;;;;;;9.20;5.38;;;;;;;;;;5051484;28;20025;-77
2023/04/06 06:04:47;;;;;;;9.10;6.18;;;;;;;;;;5039501;28;20033;-78
2023/04/06 06:07:14;;;;;;;10.15;7.07;;;;;;;;;;5032231;28;20028;-76
2023/04/06 06:09:41;;;;;;;10.40;5.55;;;;;;;;;;5039194;28;20429;-77
2023/04/06 06:12:07;;;;;;;11.60;6.78;;;;;;;;;;5040557;28;20048;-74
2023/04/06 06:14:33;;;;;;;9.88;6.43;;;;;;;;;;5043409;28;20037;-74
2023/04/06 06:17:00;;;;;;;11.70;6.35;;;;;;;;;;5034552;28;20033;-75
2023/04/06 06:19:26;;;;;;;7.65;5.95;;;;;;;;;;5042244;28;20032;-72
2023/04/06 06:21:52;;;;;;;10.80;5.55;;;;;;;;;;5032527;28;20040;-73
2023/04/06 06:24:18;;;;;;;9.55;6.38;;;;;;;;;;5015052;28;20320;-72
2023/04/06 06:26:44;;;;;;;28.85;6.55;;;;;;;;;;5029145;28;20040;-78
2023/04/06 06:29:10;;;;;;;8.88;5.97;;;;;;;;;;5009243;28;20037;-75
2023/04/06 06:31:36;;;;;;;9.63;5.68;;;;;;;;;;5044132;28;20033;-74
2023/04/06 06:34:02;;;;;;;10.43;6.50;;;;;;;;;;5040434;28;20032;-73
2023/04/06 06:36:31;;;;;;;10.68;5.43;;;;;;;;;;5025261;28;20409;-74
2023/04/06 06:38:58;;;;;;;10.27;6.72;;;;;;;;;;5020314;28;20028;-78
2023/04/06 06:41:24;;;;;;;8.80;6.30;;;;;;;;;;5009626;28;20029;-77
2023/04/06 06:43:50;;;;;;;14.50;6.10;;;;;;;;;;5023388;28;20435;-73
2023/04/06 06:46:16;;;;;;;8.63;5.88;;;;;;;;;;5007360;28;20063;-74
2023/04/06 06:48:43;;;;;;;13.95;6.07;;;;;;;;;;5026200;28;20462;-74
2023/04/06 06:51:09;;;;;;;11.25;6.35;;;;;;;;;;4984179;28;20037;-79
2023/04/06 06:53:35;;;;;;;17.75;10.48;;;;;;;;;;5019017;28;20026;-75
2023/04/06 06:56:02;;;;;;;10.45;6.53;;;;;;;;;;5024632;28;20391;-77
2023/04/06 06:58:28;;;;;;;9.93;6.15;;;;;;;;;;5005735;28;20037;-73
2023/04/06 07:00:57;;;;;;;10.90;6.68;;;;;;;;;;5008564;28;20026;-73
2023/04/06 07:03:23;;;;;;;10.90;6.05;;;;;;;;;;5024902;28;20052;-74
2023/04/06 07:05:53;;;;;;;9.63;6.60;;;;;;;;;;4995330;28;20060;-79
2023/04/06 07:08:19;;;;;;;10.25;6.53;;;;;;;;;;5006985;28;20057;-76
2023/04/06 07:10:45;;;;;;;15.38;7.47;;;;;;;;;;5008941;28;20040;-75
2023/04/06 07:13:12;;;;;;;9.73;6.75;;;;;;;;;;5026012;28;20334;-75
2023/04/06 07:15:38;;;;;;;11.68;7.18;;;;;;;;;;5009419;28;20048;-80
2023/04/06 07:18:04;;;;;;;9.35;6.57;;;;;;;;;;5042114;28;20029;-74
2023/04/06 07:20:30;;;;;;;13.15;6.63;;;;;;;;;;4999188;28;20045;-73
2023/04/06 07:22:56;;;;;;;14.93;7.07;;;;;;;;;;5016394;28;20026;-71
2023/04/06 07:25:22;;;;;;;8.85;6.43;;;;;;;;;;5033356;28;20449;-72
2023/04/06 07:27:48;;;;;;;9.70;5.80;;;;;;;;;;5033951;28;20551;-71
2023/04/06 07:30:14;;;;;;;13.82;7.00;;;;;;;;;;5013285;28;20462;-74
2023/04/06 07:32:40;;;;;;;18.58;7.75;;;;;;;;;;5004257;28;20039;-75
2023/04/06 07:35:06;;;;;;;35.80;19.13;;;;;;;;;;5014229;28;20029;-72
2023/04/06 07:37:32;;;;;;;13.20;7.82;;;;;;;;;;5014645;28;20524;-72
2023/04/06 07:39:58;;;;;;;8.88;6.90;;;;;;;;;;5008031;28;20465;-69
2023/04/06 07:42:25;;;;;;;9.00;6.72;;;;;;;;;;5025193;28;20088;-71
2023/04/06 07:44:51;;;;;;;13.77;7.30;;;;;;;;;;5022326;28;20471;-72
2023/04/06 07:47:17;;;;;;;12.25;7.32;;;;;;;;;;5022832;28;20053;-73
2023/04/06 07:49:43;;;;;;;15.10;7.60;;;;;;;;;;5005533;28;20453;-74
2023/04/06 07:52:09;;;;;;;18.50;7.57;;;;;;;;;;5022502;28;20360;-72
2023/04/06 07:54:35;;;;;;;13.40;7.70;;;;;;;;;;5026099;28;20072;-72
2023/04/06 07:57:01;;;;;;;14.63;7.28;;;;;;;;;;5023252;28;20030;-72
2023/04/06 07:59:27;;;;;;;9.93;7.35;;;;;;;;;;5008907;28;20037;-72
2023/04/06 08:01:53;;;;;;;9.48;6.93;;;;;;;;;;5017455;28;20075;-71
2023/04/06 08:04:19;;;;;;;13.48;7.10;;;;;;;;;;4990535;28;20230;-70
2023/04/06 08:06:45;;;;;;;12.30;7.47;;;;;;;;;;5007091;28;20478;-72
2023/04/06 08:09:11;;;;;;;34.85;11.75;;;;;;;;;;4986014;28;20113;-72
2023/04/06 08:11:37;;;;;;;24.20;9.77;;;;;;;;;;5004311;28;20053;-72
2023/04/06 08:14:03;;;;;;;16.00;7.93;;;;;;;;;;5002040;28;20033;-71
2023/04/06 08:16:30;;;;;;;21.55;11.05;;;;;;;;;;4990086;28;20120;-73
2023/04/06 08:18:57;;;;;;;14.35;8.68;;;;;;;;;;4990503;28;20025;-73
2023/04/06 08:21:23;;;;;;;11.43;7.13;;;;;;;;;;5020263;28;20030;-72
2023/04/06 08:23:50;;;;;;;11.70;6.88;;;;;;;;;;5007494;28;20320;-71
2023/04/06 08:26:16;;;;;;;12.77;6.80;;;;;;;;;;5025367;28;20482;-70
2023/04/06 08:28:42;;;;;;;13.43;8.15;;;;;;;;;;5021476;28;20034;-72
2023/04/06 08:31:08;;;;;;;9.23;6.28;;;;;;;;;;5023192;28;20550;-74
2023/04/06 08:33:38;;;;;;;11.13;7.85;;;;;;;;;;5023481;28;20638;-72
2023/04/06 08:36:12;;;;;;;11.75;7.00;;;;;;;;;;5007116;28;20101;-71
2023/04/06 08:38:38;;;;;;;11.55;7.72;;;;;;;;;;5006818;28;20037;-71
2023/04/06 08:41:08;;;;;;;14.18;9.85;;;;;;;;;;5025870;28;20030;-75
2023/04/06 08:43:35;;;;;;;14.80;7.85;;;;;;;;;;5022746;28;20036;-70
2023/04/06 08:46:02;;;;;;;9.35;6.90;;;;;;;;;;5016473;28;20037;-73
2023/04/06 08:48:28;;;;;;;13.35;7.72;;;;;;;;;;5021991;28;20140;-71
2023/04/06 08:50:55;;;;;;;17.13;8.60;;;;;;;;;;5042395;28;20466;-71
2023/04/06 08:53:21;;;;;;;11.32;8.30;;;;;;;;;;5040810;28;21753;-71
2023/04/06 08:55:47;;;;;;;13.75;8.38;;;;;;;;;;5012286;28;20477;-72
2023/04/06 08:58:14;;;;;;;15.30;9.75;;;;;;;;;;5041953;28;20029;-72
2023/04/06 09:00:40;;;;;;;15.25;9.20;;;;;;;;;;5036576;28;20649;-76
2023/04/06 09:03:08;;;;;;;21.45;10.07;;;;;;;;;;5024826;28;20082;-72
2023/04/06 09:05:34;;;;;;;14.40;9.88;;;;;;;;;;5035652;28;20047;-72
2023/04/06 09:08:00;;;;;;;14.00;9.52;;;;;;;;;;5027956;28;20069;-73
2023/04/06 09:10:26;;;;;;;15.27;10.20;;;;;;;;;;5041978;28;20056;-71
2023/04/06 09:13:02;;;;;;;13.77;9.45;;;;;;;;;;5022023;28;20044;-70
2023/04/06 09:15:28;;;;;;;13.98;10.40;;;;;;;;;;5038570;28;20115;-73
2023/04/06 09:17:55;;;;;;;15.35;11.05;;;;;;;;;;5023395;28;20076;-72
2023/04/06 09:20:26;;;;;;;24.08;14.95;;;;;;;;;;5027378;28;20444;-71
2023/04/06 09:22:52;;;;;;;18.67;12.30;;;;;;;;;;5044517;28;20032;-72
2023/04/06 09:25:20;;;;;;;16.25;10.25;;;;;;;;;;5030761;28;20037;-72
2023/04/06 09:27:46;;;;;;;23.90;11.18;;;;;;;;;;5042598;28;20035;-72
2023/04/06 09:30:13;;;;;;;17.33;12.00;;;;;;;;;;5021718;28;20025;-72
2023/04/06 09:32:53;;;;;;;17.77;11.90;;;;;;;;;;5033729;28;20032;-71
2023/04/06 09:35:22;;;;;;;20.52;11.73;;;;;;;;;;5031590;28;20488;-75
2023/04/06 09:37:49;;;;;;;17.20;11.30;;;;;;;;;;5049243;28;20494;-71
2023/04/06 09:40:17;;;;;;;17.48;11.75;;;;;;;;;;5049993;28;20047;-71
2023/04/06 09:42:46;;;;;;;17.65;11.55;;;;;;;;;;5049748;28;20124;-71
2023/04/06 09:45:12;;;;;;;16.52;11.88;;;;;;;;;;5039296;28;20069;-72
2023/04/06 09:47:41;;;;;;;16.52;11.60;;;;;;;;;;5040246;28;20076;-72
2023/04/06 09:50:08;;;;;;;17.55;12.13;;;;;;;;;;5013257;28;20029;-74
2023/04/06 09:52:38;;;;;;;19.40;13.10;;;;;;;;;;5037418;28;20413;-70
2023/04/06 09:55:04;;;;;;;19.02;12.52;;;;;;;;;;5029262;28;20033;-71
2023/04/06 09:57:50;;;;;;;24.20;13.82;;;;;;;;;;5031398;28;20025;-72
2023/04/06 10:00:19;;;;;;;18.50;12.18;;;;;;;;;;5042909;28;20025;-71
2023/04/06 10:02:54;;;;;;;17.77;12.00;;;;;;;;;;5038545;28;20056;-72
2023/04/06 10:05:23;;;;;;;16.77;12.15;;;;;;;;;;5044095;28;20049;-73
2023/04/06 10:07:50;;;;;;;20.92;12.98;;;;;;;;;;5014000;28;20128;-72
2023/04/06 10:10:16;;;;;;;18.65;11.45;;;;;;;;;;5032543;28;20033;-72
2023/04/06 10:12:44;;;;;;;19.30;13.80;;;;;;;;;;5038689;28;20195;-72
2023/04/06 10:15:11;;;;;;;19.33;12.80;;;;;;;;;;5029988;28;20109;-73
2023/04/06 10:17:37;;;;;;;22.55;12.98;;;;;;;;;;5009329;28;20061;-72
2023/04/06 10:20:06;;;;;;;17.95;14.07;;;;;;;;;;5022519;28;20029;-72
2023/04/06 10:22:52;;;;;;;20.58;13.40;;;;;;;;;;5023686;28;20215;-74
2023/04/06 10:25:26;;;;;;;18.10;14.15;;;;;;;;;;5041578;28;20082;-77
2023/04/06 10:27:59;;;;;;;20.10;13.85;;;;;;;;;;5040899;28;20389;-72
2023/04/06 10:30:25;;;;;;;23.70;15.85;;;;;;;;;;5045882;28;21912;-73
2023/04/06 10:32:51;;;;;;;20.52;14.48;;;;;;;;;;5034365;28;20104;-76
2023/04/06 10:35:19;;;;;;;23.45;15.15;;;;;;;;;;5048083;28;20036;-72
2023/04/06 10:37:52;;;;;;;25.25;15.25;;;;;;;;;;5051074;28;20036;-72
2023/04/06 10:40:19;;;;;;;23.38;14.35;;;;;;;;;;5054068;28;20381;-71
2023/04/06 10:42:46;;;;;;;20.20;14.77;;;;;;;;;;5053519;28;20030;-72
2023/04/06 10:45:25;;;;;;;24.02;15.00;;;;;;;;;;5041343;28;20033;-70
2023/04/06 10:47:54;;;;;;;23.75;15.18;;;;;;;;;;5043045;28;20127;-70
2023/04/06 10:50:20;;;;;;;24.98;14.88;;;;;;;;;;5045563;28;20063;-72
2023/04/06 10:52:46;;;;;;;22.38;14.63;;;;;;;;;;5026891;28;20040;-69
2023/04/06 10:55:14;;;;;;;23.95;15.77;;;;;;;;;;5049404;28;20025;-69
2023/04/06 10:57:40;;;;;;;32.50;16.60;;;;;;;;;;5046006;28;20074;-69
2023/04/06 11:00:07;;;;;;;22.00;15.30;;;;;;;;;;5044956;28;20033;-71
2023/04/06 11:02:33;;;;;;;21.92;15.25;;;;;;;;;;5047037;28;20037;-71
2023/04/06 11:05:00;;;;;;;23.80;15.00;;;;;;;;;;5040196;28;20037;-69
2023/04/06 11:07:27;;;;;;;26.35;16.85;;;;;;;;;;5048295;28;20029;-69
2023/04/06 11:09:53;;;;;;;25.05;15.82;;;;;;;;;;5044366;28;20045;-70
2023/04/06 11:12:26;;;;;;;24.23;16.00;;;;;;;;;;5047473;28;20108;-70
2023/04/06 11:15:00;;;;;;;30.85;18.45;;;;;;;;;;5047166;28;20029;-72
2023/04/06 11:17:27;;;;;;;42.67;24.70;;;;;;;;;;5046881;28;20465;-74
2023/04/06 11:19:53;;;;;;;23.25;16.65;;;;;;;;;;5027048;28;20485;-70
2023/04/06 11:22:19;;;;;;;25.80;16.33;;;;;;;;;;5025966;28;20094;-75
2023/04/06 11:24:45;;;;;;;25.48;15.95;;;;;;;;;;5045205;28;20052;-72
2023/04/06 11:27:12;;;;;;;30.75;16.45;;;;;;;;;;5026714;28;20048;-71
2023/04/06 11:29:40;;;;;;;23.63;16.58;;;;;;;;;;5047015;28;20029;-73
2023/04/06 11:32:08;;;;;;;24.42;15.75;;;;;;;;;;5026119;28;20041;-71
2023/04/06 11:34:36;;;;;;;27.75;16.63;;;;;;;;;;5030572;28;20112;-70
2023/04/06 11:37:05;;;;;;;23.75;16.75;;;;;;;;;;5031652;28;20040;-73
2023/04/06 11:39:35;;;;;;;23.55;16.40;;;;;;;;;;5033966;28;20029;-73
2023/04/06 11:42:05;;;;;;;22.88;16.25;;;;;;;;;;5028066;28;20025;-73
2023/04/06 11:44:42;;;;;;;25.30;16.67;;;;;;;;;;5050081;28;20073;-73
2023/04/06 11:47:12;;;;;;;21.85;16.17;;;;;;;;;;5028876;28;20045;-73
2023/04/06 11:49:39;;;;;;;25.42;16.20;;;;;;;;;;5015260;28;20052;-72
2023/04/06 11:52:15;;;;;;;23.23;17.13;;;;;;;;;;5014789;28;20095;-75
2023/04/06 11:54:41;;;;;;;32.42;16.42;;;;;;;;;;5013711;28;20032;-73
2023/04/06 11:57:08;;;;;;;26.75;17.80;;;;;;;;;;4996250;28;20501;-73
2023/04/06 11:59:34;;;;;;;24.20;17.27;;;;;;;;;;4998385;28;20040;-73
2023/04/06 12:02:01;;;;;;;25.92;17.35;;;;;;;;;;5004237;28;20092;-76
2023/04/06 12:04:27;;;;;;;27.50;17.02;;;;;;;;;;5013030;28;20103;-74
2023/04/06 12:06:54;;;;;;;24.70;16.23;;;;;;;;;;5011786;28;20125;-73
2023/04/06 12:09:20;;;;;;;34.08;17.17;;;;;;;;;;4999167;28;20402;-73
2023/04/06 12:11:46;;;;;;;22.52;15.25;;;;;;;;;;5011740;28;20497;-73
2023/04/06 12:14:12;;;;;;;22.50;15.52;;;;;;;;;;5030610;28;20025;-74
2023/04/06 12:16:39;;;;;;;22.25;15.85;;;;;;;;;;5025442;28;20040;-72
2023/04/06 12:19:05;;;;;;;24.63;15.95;;;;;;;;;;5012792;28;20021;-75
2023/04/06 12:21:32;;;;;;;24.40;15.35;;;;;;;;;;5029785;28;20022;-73
2023/04/06 12:23:58;;;;;;;25.55;15.25;;;;;;;;;;5031672;28;20100;-73
2023/04/06 12:26:24;;;;;;;27.48;15.20;;;;;;;;;;5014719;28;20034;-73
2023/04/06 12:28:50;;;;;;;28.83;14.80;;;;;;;;;;5031207;28;20443;-72
2023/04/06 12:31:17;;;;;;;21.88;15.05;;;;;;;;;;5014624;28;20089;-73
2023/04/06 12:33:44;;;;;;;23.38;14.85;;;;;;;;;;5022823;28;20032;-72
2023/04/06 12:36:21;;;;;;;21.90;13.98;;;;;;;;;;4987464;28;20043;-73
2023/04/06 12:38:53;;;;;;;24.13;14.43;;;;;;;;;;5011691;28;20026;-72
2023/04/06 12:41:19;;;;;;;;;;;14.70;99.90;;;;;;5018977;28;20080;-73
2023/04/06 12:43:45;;;;;;;24.75;15.25;;;;;;;;;;5013638;28;19909;-72
2023/04/06 12:46:11;;;;;;;21.75;14.60;;;;;;;;;;5015419;28;20036;-72
2023/04/06 12:48:38;;;;;;;18.77;13.38;;;;;;;;;;5028054;28;20119;-72
2023/04/06 12:51:07;;;;;;;16.38;11.45;;;;;;;;;;4992095;28;20034;-73
2023/04/06 12:53:34;;;;;;;12.90;9.50;;;;;;;;;;5028587;28;20482;-72
2023/04/06 12:56:01;;;;;;;13.07;8.98;;;;;;;;;;5021930;28;20377;-73
2023/04/06 12:58:28;;;;;;;12.57;9.05;;;;;;;;;;5029356;28;20436;-73
2023/04/06 13:00:54;;;;;;;14.65;9.05;;;;;;;;;;5030158;28;20038;-72
2023/04/06 13:03:21;;;;;;;16.30;8.98;;;;;;;;;;5011924;28;20033;-75
2023/04/06 13:05:48;;;;;;;11.45;8.75;;;;;;;;;;5030041;28;20036;-73
2023/04/06 13:08:14;;;;;;;15.02;9.40;;;;;;;;;;5029429;28;20037;-73
2023/04/06 13:10:48;;;;;;;14.27;10.13;;;;;;;;;;5012445;28;20138;-72
2023/04/06 13:13:17;;;;;;;15.25;10.77;;;;;;;;;;5030480;28;20026;-72
2023/04/06 13:15:44;;;;;;;15.82;10.48;;;;;;;;;;5011120;28;20057;-72
2023/04/06 13:18:10;;;;;;;16.05;10.30;;;;;;;;;;5013095;28;20108;-72
2023/04/06 13:20:36;;;;;;;17.15;10.68;;;;;;;;;;5010051;28;20367;-73
2023/04/06 13:23:03;;;;;;;14.73;10.63;;;;;;;;;;5008978;28;20117;-72
2023/04/06 13:25:29;;;;;;;14.13;10.13;;;;;;;;;;5022819;28;20095;-75
2023/04/06 13:27:55;;;;;;;17.23;11.38;;;;;;;;;;5014075;28;20466;-72
2023/04/06 13:30:22;;;;;;;16.65;11.55;;;;;;;;;;5028416;28;20497;-71
2023/04/06 13:32:48;;;;;;;18.75;12.90;;;;;;;;;;5026173;28;20091;-72
2023/04/06 13:35:14;;;;;;;17.55;12.63;;;;;;;;;;5013878;28;20143;-72
2023/04/06 13:37:40;;;;;;;21.40;13.10;;;;;;;;;;5009101;28;20033;-71
2023/04/06 13:40:06;;;;;;;16.77;11.52;;;;;;;;;;5010374;28;20049;-72
2023/04/06 13:42:34;;;;;;;16.83;12.70;;;;;;;;;;5009210;28;20061;-72
2023/04/06 13:45:00;;;;;;;16.27;11.20;;;;;;;;;;5011419;28;20453;-72
2023/04/06 13:47:27;;;;;;;20.27;14.38;;;;;;;;;;5011950;28;20041;-73
2023/04/06 13:49:53;;;;;;;22.63;12.65;;;;;;;;;;5050044;28;20039;-73
2023/04/06 13:52:20;;;;;;;18.35;11.63;;;;;;;;;;5029396;28;20448;-73
2023/04/06 13:54:46;;;;;;;17.90;11.60;;;;;;;;;;5031721;28;20461;-73
2023/04/06 13:57:12;;;;;;;17.88;11.57;;;;;;;;;;5046070;28;20638;-71
2023/04/06 13:59:39;;;;;;;18.38;11.82;;;;;;;;;;5015887;28;20401;-72
2023/04/06 14:02:06;;;;;;;16.88;11.35;;;;;;;;;;5029151;28;20142;-73
2023/04/06 14:04:33;;;;;;;17.02;11.57;;;;;;;;;;5031355;28;20469;-73
2023/04/06 14:06:59;;;;;;;19.42;11.48;;;;;;;;;;5012304;28;20042;-72
2023/04/06 14:09:26;;;;;;;16.10;10.63;;;;;;;;;;5029647;28;20064;-73
2023/04/06 14:11:52;;;;;;;13.32;8.93;;;;;;;;;;5038283;28;20036;-72
2023/04/06 14:14:18;;;;;;;13.82;10.18;;;;;;;;;;5064509;28;20057;-72
2023/04/06 14:16:44;;;;;;;12.23;9.60;;;;;;;;;;5025439;28;20048;-73
2023/04/06 14:19:15;;;;;;;14.05;10.30;;;;;;;;;;5049201;28;20408;-72
2023/04/06 14:21:41;;;;;;;13.77;10.40;;;;;;;;;;5031562;28;20028;-72
2023/04/06 14:24:09;;;;;;;21.23;10.30;;;;;;;;;;5041282;28;20055;-73
2023/04/06 14:26:39;;;;;;;15.02;10.10;;;;;;;;;;5045925;28;20040;-73
2023/04/06 14:29:05;;;;;;;15.75;10.60;;;;;;;;;;5049106;28;20025;-74